createdAt,value
2022-12-23T00:00:40.518Z,9.86
2022-12-23T00:03:07.521Z,9.83
2022-12-23T00:05:41.040Z,10.06
2022-12-23T00:08:08.300Z,9.92
2022-12-23T00:10:38.367Z,9.94
2022-12-23T00:13:23.609Z,9.98
2022-12-23T00:15:50.142Z,9.90
2022-12-23T00:18:16.887Z,9.73
2022-12-23T00:20:43.528Z,10.16
2022-12-23T00:23:10.140Z,9.97
2022-12-23T00:25:41.768Z,9.71
2022-12-23T00:28:13.599Z,9.89
2022-12-23T00:30:47.390Z,10.15
2022-12-23T00:33:22.673Z,10.08
2022-12-23T00:35:49.927Z,9.91
2022-12-23T00:38:17.683Z,9.96
2022-12-23T00:41:03.267Z,9.99
2022-12-23T00:43:29.937Z,9.79
2022-12-23T00:45:56.643Z,9.95
2022-12-23T00:48:43.625Z,9.91
2022-12-23T00:51:10.167Z,10.42
2022-12-23T00:53:36.725Z,10.22
2022-12-23T00:56:03.375Z,10.26
2022-12-23T00:58:31.899Z,10.56
2022-12-23T01:01:18.944Z,10.24
2022-12-23T01:04:03.859Z,10.15
2022-12-23T01:06:30.490Z,10.04
2022-12-23T01:08:57.008Z,10.13
2022-12-23T01:11:23.591Z,10.40
2022-12-23T01:13:50.537Z,10.28
2022-12-23T01:16:18.029Z,10.17
2022-12-23T01:18:45.670Z,10.39
2022-12-23T01:21:12.473Z,10.35
2022-12-23T01:23:39.394Z,10.45
2022-12-23T01:26:07.807Z,10.75
2022-12-23T01:28:36.022Z,10.53
2022-12-23T01:31:05.048Z,10.52
2022-12-23T01:33:33.201Z,10.43
2022-12-23T01:36:05.148Z,10.20
2022-12-23T01:38:31.737Z,10.06
2022-12-23T01:40:58.505Z,10.41
2022-12-23T01:43:45.825Z,10.51
2022-12-23T01:46:12.417Z,10.18
2022-12-23T01:48:40.286Z,10.38
2022-12-23T01:51:27.567Z,10.27
2022-12-23T01:53:59.641Z,10.31
2022-12-23T01:56:31.076Z,10.50
2022-12-23T01:59:02.385Z,10.53
2022-12-23T02:01:49.101Z,10.59
2022-12-23T02:04:23.134Z,10.42
2022-12-23T02:07:09.844Z,10.55
2022-12-23T02:09:39.240Z,10.86
2022-12-23T02:12:28.087Z,10.53
2022-12-23T02:15:33.250Z,10.72
2022-12-23T02:18:09.925Z,10.59
2022-12-23T02:20:55.332Z,10.74
2022-12-23T02:23:40.365Z,10.58
2022-12-23T02:26:18.993Z,10.98
2022-12-23T02:29:04.676Z,11.08
2022-12-23T02:31:38.151Z,11.37
2022-12-23T02:34:18.992Z,11.16
2022-12-23T02:36:57.328Z,11.32
2022-12-23T02:39:47.131Z,11.38
2022-12-23T02:42:20.528Z,11.40
2022-12-23T02:44:53.219Z,11.18
2022-12-23T02:47:24.393Z,11.43
2022-12-23T02:49:56.356Z,11.64
2022-12-23T02:52:29.749Z,11.56
2022-12-23T02:55:05.644Z,11.47
2022-12-23T02:57:36.607Z,11.46
2022-12-23T03:00:04.553Z,11.72
2022-12-23T03:02:33.719Z,11.57
2022-12-23T03:05:01.153Z,11.20
2022-12-23T03:07:42.690Z,11.38
2022-12-23T03:10:16.373Z,11.21
2022-12-23T03:13:01.488Z,11.37
2022-12-23T03:15:47.280Z,11.40
2022-12-23T03:18:29.463Z,11.38
2022-12-23T03:21:16.087Z,11.44
2022-12-23T03:23:55.289Z,11.73
2022-12-23T03:26:31.181Z,10.79
2022-12-23T03:29:06.200Z,10.62
2022-12-23T03:31:34.851Z,10.47
2022-12-23T03:34:10.415Z,10.40
2022-12-23T03:36:54.459Z,10.41
2022-12-23T03:39:24.026Z,10.34
2022-12-23T03:42:00.588Z,10.40
2022-12-23T03:44:32.163Z,10.50
2022-12-23T03:47:10.770Z,10.46
2022-12-23T03:49:45.162Z,10.57
2022-12-23T03:52:22.711Z,10.74
2022-12-23T03:54:56.319Z,10.89
2022-12-23T03:57:28.750Z,10.98
2022-12-23T03:59:55.880Z,10.91
2022-12-23T04:02:32.735Z,10.92
2022-12-23T04:05:18.831Z,11.07
2022-12-23T04:07:52.130Z,11.17
2022-12-23T04:10:21.372Z,11.25
2022-12-23T04:12:48.818Z,11.25
2022-12-23T04:15:20.436Z,11.12
2022-12-23T04:17:47.848Z,11.08
2022-12-23T04:20:14.561Z,11.01
2022-12-23T04:22:43.621Z,10.96
2022-12-23T04:25:15.591Z,10.75
2022-12-23T04:27:42.683Z,10.84
2022-12-23T04:30:11.444Z,10.85
2022-12-23T04:32:38.270Z,10.76
2022-12-23T04:35:05.345Z,10.70
2022-12-23T04:37:32.087Z,10.73
2022-12-23T04:39:58.620Z,10.70
2022-12-23T04:42:25.243Z,10.82
2022-12-23T04:44:52.015Z,10.63
2022-12-23T04:47:18.678Z,10.83
2022-12-23T04:49:45.288Z,10.91
2022-12-23T04:52:11.980Z,10.70
2022-12-23T04:54:45.506Z,10.86
2022-12-23T04:57:13.139Z,10.87
2022-12-23T04:59:39.691Z,10.83
2022-12-23T05:02:06.745Z,10.77
2022-12-23T05:04:33.693Z,11.11
2022-12-23T05:07:00.296Z,10.92
2022-12-23T05:09:26.823Z,10.93
2022-12-23T05:11:53.579Z,10.77
2022-12-23T05:14:20.385Z,11.04
2022-12-23T05:16:47.018Z,11.12
2022-12-23T05:19:13.909Z,11.25
2022-12-23T05:21:40.690Z,11.11
2022-12-23T05:24:07.447Z,10.94
2022-12-23T05:26:34.463Z,10.92
2022-12-23T05:29:01.036Z,10.93
2022-12-23T05:31:27.670Z,11.06
2022-12-23T05:33:54.357Z,11.03
2022-12-23T05:36:20.952Z,11.02
2022-12-23T05:38:48.456Z,10.95
2022-12-23T05:41:17.110Z,10.91
2022-12-23T05:43:43.675Z,10.95
2022-12-23T05:46:10.500Z,10.86
2022-12-23T05:48:37.354Z,11.04
2022-12-23T05:51:04.118Z,11.02
2022-12-23T05:53:30.744Z,11.11
2022-12-23T05:55:57.541Z,11.14
2022-12-23T05:58:24.319Z,11.23
2022-12-23T06:00:51.026Z,11.04
2022-12-23T06:03:17.889Z,11.11
2022-12-23T06:05:44.535Z,11.19
2022-12-23T06:08:11.291Z,11.08
2022-12-23T06:10:37.927Z,10.98
2022-12-23T06:13:04.511Z,10.92
2022-12-23T06:15:31.226Z,11.04
2022-12-23T06:17:58.440Z,11.39
2022-12-23T06:20:25.132Z,11.26
2022-12-23T06:22:51.752Z,11.18
2022-12-23T06:25:18.472Z,11.20
2022-12-23T06:27:45.257Z,11.18
2022-12-23T06:30:12.357Z,11.17
2022-12-23T06:32:39.847Z,11.10
2022-12-23T06:35:10.125Z,11.12
2022-12-23T06:37:36.736Z,11.04
2022-12-23T06:40:03.936Z,11.01
2022-12-23T06:42:30.624Z,10.93
2022-12-23T06:44:57.174Z,11.03
2022-12-23T06:47:23.705Z,11.04
2022-12-23T06:49:50.271Z,11.29
2022-12-23T06:52:17.001Z,10.94
2022-12-23T06:54:43.775Z,11.07
2022-12-23T06:57:10.352Z,11.06
2022-12-23T06:59:36.937Z,11.15
2022-12-23T07:02:04.053Z,11.21
2022-12-23T07:04:30.833Z,11.14
2022-12-23T07:06:57.868Z,11.38
2022-12-23T07:09:24.703Z,11.21
2022-12-23T07:11:51.270Z,11.00
2022-12-23T07:14:17.834Z,11.11
2022-12-23T07:16:45.484Z,11.01
2022-12-23T07:19:12.342Z,11.03
2022-12-23T07:21:38.881Z,11.24
2022-12-23T07:24:06.390Z,11.17
2022-12-23T07:26:33.015Z,11.18
2022-12-23T07:28:59.551Z,11.06
2022-12-23T07:31:26.396Z,11.07
2022-12-23T07:33:52.965Z,11.20
2022-12-23T07:36:19.601Z,11.26
2022-12-23T07:38:50.243Z,11.26
2022-12-23T07:41:17.185Z,11.16
2022-12-23T07:43:43.891Z,10.93
2022-12-23T07:46:10.877Z,11.17
2022-12-23T07:48:37.701Z,11.19
2022-12-23T07:51:04.841Z,11.19
2022-12-23T07:53:31.640Z,11.15
2022-12-23T07:55:58.835Z,11.31
2022-12-23T07:58:25.801Z,11.30
2022-12-23T08:00:59.508Z,11.42
2022-12-23T08:03:26.154Z,11.44
2022-12-23T08:06:07.053Z,11.58
2022-12-23T08:08:34.164Z,11.45
2022-12-23T08:11:03.338Z,11.48
2022-12-23T08:13:32.074Z,11.64
2022-12-23T08:16:00.794Z,11.72
2022-12-23T08:18:29.701Z,11.92
2022-12-23T08:20:58.423Z,11.83
2022-12-23T08:23:26.687Z,11.75
2022-12-23T08:26:09.397Z,11.85
2022-12-23T08:28:37.508Z,11.97
2022-12-23T08:31:09.232Z,11.84
2022-12-23T08:33:38.215Z,11.91
2022-12-23T08:36:06.838Z,12.01
2022-12-23T08:38:34.477Z,11.81
2022-12-23T08:41:01.261Z,11.89
2022-12-23T08:43:35.281Z,11.89
2022-12-23T08:46:03.052Z,11.79
2022-12-23T08:48:29.738Z,11.86
2022-12-23T08:50:56.348Z,12.13
2022-12-23T08:53:23.141Z,12.28
2022-12-23T08:55:49.773Z,12.54
2022-12-23T08:58:16.407Z,12.31
2022-12-23T09:00:43.105Z,12.10
2022-12-23T09:03:09.998Z,12.19
2022-12-23T09:05:41.502Z,12.14
2022-12-23T09:08:09.433Z,11.84
2022-12-23T09:10:43.666Z,11.67
2022-12-23T09:13:16.238Z,11.67
2022-12-23T09:15:47.028Z,11.64
2022-12-23T09:18:13.708Z,11.34
2022-12-23T09:20:40.405Z,11.56
2022-12-23T09:23:06.973Z,11.33
2022-12-23T09:25:35.634Z,11.34
2022-12-23T09:28:02.595Z,11.42
2022-12-23T09:30:29.304Z,11.47
2022-12-23T09:32:56.077Z,11.44
2022-12-23T09:35:22.621Z,11.50
2022-12-23T09:37:49.222Z,11.80
2022-12-23T09:40:21.599Z,11.93
2022-12-23T09:42:56.336Z,11.98
2022-12-23T09:45:50.037Z,11.99
2022-12-23T09:48:22.311Z,12.01
2022-12-23T09:50:49.174Z,11.73
2022-12-23T09:53:19.900Z,11.96
2022-12-23T09:55:55.027Z,12.06
2022-12-23T09:58:35.696Z,11.89
2022-12-23T10:01:18.477Z,11.83
2022-12-23T10:04:37.911Z,11.74
2022-12-23T10:07:04.495Z,11.68
2022-12-23T10:09:35.540Z,11.82
2022-12-23T10:12:19.716Z,11.79
2022-12-23T10:14:52.217Z,11.76
2022-12-23T10:17:41.811Z,11.95
2022-12-23T10:20:18.466Z,11.84
2022-12-23T10:22:46.463Z,11.93
2022-12-23T10:25:20.015Z,12.15
2022-12-23T10:27:46.718Z,11.95
2022-12-23T10:30:51.341Z,12.10
2022-12-23T10:33:21.649Z,11.94
2022-12-23T10:36:11.469Z,12.13
2022-12-23T10:38:38.129Z,12.18
2022-12-23T10:41:13.415Z,12.33
2022-12-23T10:44:01.453Z,12.08
2022-12-23T10:46:31.106Z,12.14
2022-12-23T10:49:16.175Z,12.16
2022-12-23T10:51:59.482Z,12.26
2022-12-23T10:54:32.950Z,12.15
2022-12-23T10:57:00.086Z,12.01
2022-12-23T10:59:29.541Z,12.13
2022-12-23T11:02:11.640Z,12.16
2022-12-23T11:04:42.069Z,12.14
2022-12-23T11:07:42.670Z,12.09
2022-12-23T11:10:04.640Z,12.09
2022-12-23T11:12:44.555Z,12.07
2022-12-23T11:15:28.573Z,12.27
2022-12-23T11:18:19.510Z,12.46
2022-12-23T11:21:02.580Z,12.41
2022-12-23T11:23:33.083Z,12.41
2022-12-23T11:26:08.719Z,12.52
2022-12-23T11:28:38.391Z,12.49
2022-12-23T11:31:09.781Z,12.35
2022-12-23T11:33:45.709Z,12.62
2022-12-23T11:36:12.222Z,12.72
2022-12-23T11:38:50.732Z,12.64
2022-12-23T11:41:22.449Z,12.61
2022-12-23T11:43:58.457Z,12.66
2022-12-23T11:46:29.862Z,12.93
2022-12-23T11:49:13.965Z,12.60
2022-12-23T11:51:41.040Z,12.61
2022-12-23T11:54:16.448Z,12.38
2022-12-23T11:56:43.574Z,12.43
2022-12-23T11:59:45.795Z,12.47
2022-12-23T12:02:20.182Z,12.36
2022-12-23T12:04:57.759Z,12.29
2022-12-23T12:07:26.041Z,12.34
2022-12-23T12:09:56.588Z,12.33
2022-12-23T12:12:23.764Z,12.29
2022-12-23T12:14:56.392Z,12.52
2022-12-23T12:17:47.246Z,12.60
2022-12-23T12:20:25.634Z,12.52
2022-12-23T12:23:02.347Z,12.59
2022-12-23T12:25:39.670Z,12.42
2022-12-23T12:28:13.760Z,12.39
2022-12-23T12:30:48.738Z,12.32
2022-12-23T12:33:18.305Z,12.28
2022-12-23T12:35:53.967Z,12.33
2022-12-23T12:38:32.714Z,12.55
2022-12-23T12:41:07.976Z,12.62
2022-12-23T12:43:39.970Z,12.63
2022-12-23T12:46:14.060Z,12.59
2022-12-23T12:48:46.708Z,12.58
2022-12-23T12:51:24.708Z,12.56
2022-12-23T12:54:04.664Z,12.48
2022-12-23T12:56:47.008Z,12.56
2022-12-23T12:59:24.933Z,12.59
2022-12-23T13:02:30.499Z,12.52
2022-12-23T13:05:28.657Z,12.43
2022-12-23T13:08:19.307Z,12.47
2022-12-23T13:11:09.630Z,12.34
2022-12-23T13:14:02.592Z,12.40
2022-12-23T13:16:57.309Z,12.49
2022-12-23T13:19:51.373Z,12.21
2022-12-23T13:22:27.491Z,12.41
2022-12-23T13:25:19.735Z,12.47
2022-12-23T13:27:49.132Z,12.18
2022-12-23T13:30:21.566Z,12.25
2022-12-23T13:33:11.131Z,12.31
2022-12-23T13:35:55.465Z,12.27
2022-12-23T13:38:54.852Z,12.29
2022-12-23T13:41:34.557Z,12.19
2022-12-23T13:44:06.670Z,12.30
2022-12-23T13:47:02.439Z,12.16
2022-12-23T13:49:38.360Z,12.22
2022-12-23T13:52:17.343Z,12.18
2022-12-23T13:54:56.016Z,12.06
2022-12-23T13:57:40.555Z,12.26
2022-12-23T14:00:17.073Z,12.24
2022-12-23T14:03:05.591Z,12.19
2022-12-23T14:05:38.929Z,12.26
2022-12-23T14:08:07.571Z,12.28
2022-12-23T14:10:35.382Z,12.33
2022-12-23T14:13:06.368Z,12.41
2022-12-23T14:15:52.920Z,12.44
2022-12-23T14:18:45.579Z,12.21
2022-12-23T14:21:32.369Z,12.15
2022-12-23T14:24:10.813Z,12.33
2022-12-23T14:27:16.206Z,12.18
2022-12-23T14:29:57.435Z,12.18
2022-12-23T14:32:36.054Z,12.15
2022-12-23T14:35:15.414Z,12.16
2022-12-23T14:37:42.842Z,12.18
2022-12-23T14:40:37.406Z,12.05
2022-12-23T14:43:22.842Z,12.04
2022-12-23T14:45:57.849Z,12.05
2022-12-23T14:48:33.624Z,12.10
2022-12-23T14:51:37.406Z,12.04
2022-12-23T14:54:03.858Z,12.17
2022-12-23T14:56:39.502Z,12.04
2022-12-23T14:59:27.075Z,12.15
2022-12-23T15:01:58.011Z,11.89
2022-12-23T15:04:30.520Z,11.93
2022-12-23T15:06:57.066Z,11.91
2022-12-23T15:09:44.770Z,12.01
2022-12-23T15:12:18.060Z,11.95
2022-12-23T15:14:50.957Z,11.85
2022-12-23T15:17:33.391Z,12.09
2022-12-23T15:20:24.606Z,12.06
2022-12-23T15:22:52.734Z,11.92
2022-12-23T15:25:28.547Z,11.90
2022-12-23T15:28:01.865Z,11.89
2022-12-23T15:30:48.150Z,11.88
2022-12-23T15:34:00.935Z,12.06
2022-12-23T15:36:10.681Z,11.95
2022-12-23T15:38:39.128Z,12.06
2022-12-23T15:41:14.951Z,11.93
2022-12-23T15:43:42.594Z,11.87
2022-12-23T15:46:16.225Z,12.13
2022-12-23T15:48:43.342Z,11.98
2022-12-23T15:51:12.620Z,11.98
2022-12-23T15:53:42.580Z,11.93
2022-12-23T15:56:18.522Z,11.96
2022-12-23T15:58:45.798Z,12.00
2022-12-23T16:01:18.307Z,12.02
2022-12-23T16:03:53.021Z,11.92
2022-12-23T16:06:22.344Z,11.93
2022-12-23T16:08:58.034Z,11.98
2022-12-23T16:11:38.155Z,11.91
2022-12-23T16:14:30.616Z,11.87
2022-12-23T16:17:09.370Z,12.04
2022-12-23T16:19:44.097Z,11.84
2022-12-23T16:22:18.069Z,11.88
2022-12-23T16:24:52.036Z,11.89
2022-12-23T16:27:25.941Z,12.02
2022-12-23T16:29:52.773Z,12.00
2022-12-23T16:32:19.775Z,12.02
2022-12-23T16:34:50.688Z,12.03
2022-12-23T16:37:17.360Z,12.09
2022-12-23T16:39:43.962Z,11.95
2022-12-23T16:42:10.538Z,12.03
2022-12-23T16:44:37.270Z,12.04
2022-12-23T16:47:13.384Z,11.96
2022-12-23T16:49:40.003Z,12.08
2022-12-23T16:52:09.379Z,12.03
2022-12-23T16:54:35.976Z,11.81
2022-12-23T16:57:02.687Z,11.90
2022-12-23T16:59:29.418Z,11.87
2022-12-23T17:02:02.943Z,11.86
2022-12-23T17:04:30.363Z,11.77
2022-12-23T17:06:56.936Z,11.79
2022-12-23T17:09:23.494Z,11.69
2022-12-23T17:11:53.891Z,11.82
2022-12-23T17:14:22.965Z,11.64
2022-12-23T17:16:50.019Z,11.70
2022-12-23T17:19:23.417Z,11.72
2022-12-23T17:21:59.709Z,11.81
2022-12-23T17:24:27.157Z,11.63
2022-12-23T17:26:55.279Z,11.68
2022-12-23T17:29:22.142Z,11.61
2022-12-23T17:31:49.843Z,11.73
2022-12-23T17:34:18.452Z,11.72
2022-12-23T17:36:49.954Z,11.66
2022-12-23T17:39:17.775Z,11.67
2022-12-23T17:41:44.509Z,11.83
2022-12-23T17:44:13.859Z,11.77
2022-12-23T17:46:40.953Z,11.68
2022-12-23T17:49:08.703Z,11.70
2022-12-23T17:51:35.626Z,11.82
2022-12-23T17:54:02.434Z,11.83
2022-12-23T17:56:33.179Z,11.90
2022-12-23T17:58:59.773Z,11.92
2022-12-23T18:01:32.193Z,11.87
2022-12-23T18:04:00.174Z,11.66
2022-12-23T18:06:28.580Z,11.65
2022-12-23T18:08:57.492Z,11.82
2022-12-23T18:11:53.355Z,11.65
2022-12-23T18:14:28.213Z,11.59
2022-12-23T18:16:54.971Z,11.72
2022-12-23T18:19:21.664Z,11.88
2022-12-23T18:21:48.718Z,11.68
2022-12-23T18:24:15.831Z,11.79
2022-12-23T18:26:43.061Z,11.88
2022-12-23T18:29:09.651Z,12.04
2022-12-23T18:31:48.401Z,11.96
2022-12-23T18:34:18.417Z,11.97
2022-12-23T18:36:45.687Z,12.01
2022-12-23T18:39:12.325Z,11.84
2022-12-23T18:41:38.866Z,11.83
2022-12-23T18:44:05.405Z,11.80
2022-12-23T18:46:32.041Z,11.88
2022-12-23T18:48:58.719Z,11.92
2022-12-23T18:51:25.284Z,11.97
2022-12-23T18:53:51.872Z,11.98
2022-12-23T18:56:21.381Z,12.11
2022-12-23T18:58:48.238Z,12.09
2022-12-23T19:01:16.907Z,12.13
2022-12-23T19:03:43.780Z,11.92
2022-12-23T19:06:13.524Z,11.94
2022-12-23T19:08:41.332Z,11.85
2022-12-23T19:11:13.885Z,11.82
2022-12-23T19:13:40.501Z,11.87
2022-12-23T19:16:07.642Z,11.97
2022-12-23T19:18:34.571Z,11.97
2022-12-23T19:21:04.493Z,12.04
2022-12-23T19:23:31.376Z,11.91
2022-12-23T19:25:57.960Z,11.87
2022-12-23T19:28:24.657Z,11.89
2022-12-23T19:30:51.583Z,11.99
2022-12-23T19:33:18.250Z,11.96
2022-12-23T19:35:44.917Z,11.95
2022-12-23T19:38:12.426Z,11.91
2022-12-23T19:40:39.724Z,12.04
2022-12-23T19:43:06.404Z,12.07
2022-12-23T19:45:32.985Z,12.05
2022-12-23T19:47:59.565Z,12.01
2022-12-23T19:50:27.288Z,12.29
2022-12-23T19:52:56.372Z,12.18
2022-12-23T19:55:23.403Z,12.37
2022-12-23T19:57:50.047Z,12.39
2022-12-23T20:00:16.794Z,12.28
2022-12-23T20:02:43.511Z,12.23
2022-12-23T20:05:10.272Z,12.18
2022-12-23T20:07:37.296Z,12.19
2022-12-23T20:10:05.504Z,12.20
2022-12-23T20:12:32.258Z,12.27
2022-12-23T20:14:58.847Z,12.01
2022-12-23T20:17:25.614Z,12.09
2022-12-23T20:19:52.243Z,11.91
2022-12-23T20:22:18.901Z,11.88
2022-12-23T20:24:45.727Z,11.85
2022-12-23T20:27:14.904Z,11.85
2022-12-23T20:29:42.644Z,11.84
2022-12-23T20:32:09.452Z,11.74
2022-12-23T20:34:39.470Z,11.75
2022-12-23T20:37:07.056Z,11.89
2022-12-23T20:39:33.909Z,11.92
2022-12-23T20:42:00.468Z,11.97
2022-12-23T20:44:36.007Z,11.96
2022-12-23T20:47:07.102Z,11.90
2022-12-23T20:49:33.782Z,11.82
2022-12-23T20:52:01.208Z,11.89
2022-12-23T20:54:32.795Z,11.86
2022-12-23T20:57:01.089Z,11.68
2022-12-23T20:59:28.006Z,11.67
2022-12-23T21:01:54.978Z,11.75
2022-12-23T21:04:22.648Z,11.69
2022-12-23T21:06:49.700Z,11.69
2022-12-23T21:09:16.422Z,11.74
2022-12-23T21:11:46.241Z,11.77
2022-12-23T21:14:14.653Z,11.66
2022-12-23T21:16:42.624Z,11.66
2022-12-23T21:19:15.748Z,11.69
2022-12-23T21:21:42.735Z,11.69
2022-12-23T21:24:10.754Z,11.72
2022-12-23T21:26:37.501Z,11.67
2022-12-23T21:29:06.455Z,11.57
2022-12-23T21:31:35.142Z,11.49
2022-12-23T21:34:02.282Z,11.55
2022-12-23T21:36:31.676Z,11.56
2022-12-23T21:38:59.247Z,11.50
2022-12-23T21:41:29.157Z,11.57
2022-12-23T21:44:00.161Z,11.65
2022-12-23T21:46:28.312Z,11.64
2022-12-23T21:48:58.957Z,11.79
2022-12-23T21:51:31.807Z,11.65
2022-12-23T21:54:03.699Z,11.72
2022-12-23T21:56:31.566Z,11.80
2022-12-23T21:59:13.118Z,11.68
2022-12-23T22:01:40.915Z,11.67
2022-12-23T22:04:07.984Z,11.74
2022-12-23T22:06:39.156Z,11.70
2022-12-23T22:09:07.323Z,11.68
2022-12-23T22:11:35.692Z,11.60
2022-12-23T22:14:04.263Z,11.57
2022-12-23T22:16:31.795Z,11.58
2022-12-23T22:19:00.255Z,11.64
2022-12-23T22:21:29.529Z,11.57
2022-12-23T22:23:57.102Z,11.55
2022-12-23T22:26:26.997Z,11.60
2022-12-23T22:28:58.648Z,11.64
2022-12-23T22:31:45.310Z,11.75
2022-12-23T22:34:18.946Z,11.64
2022-12-23T22:36:46.141Z,11.71
2022-12-23T22:39:21.127Z,11.67
2022-12-23T22:41:49.968Z,11.68
2022-12-23T22:44:16.713Z,11.85
2022-12-23T22:46:43.601Z,11.74
2022-12-23T22:49:15.270Z,11.77
2022-12-23T22:51:43.140Z,11.68
2022-12-23T22:54:10.295Z,11.73
2022-12-23T22:56:36.966Z,11.77
2022-12-23T22:59:04.847Z,11.77
2022-12-23T23:01:34.396Z,11.74
2022-12-23T23:04:03.054Z,11.74
2022-12-23T23:06:37.863Z,11.70
2022-12-23T23:09:11.451Z,11.76
2022-12-23T23:11:38.648Z,11.71
2022-12-23T23:14:05.785Z,11.61
2022-12-23T23:16:33.307Z,11.53
2022-12-23T23:19:00.503Z,11.70
2022-12-23T23:21:27.220Z,11.70
2022-12-23T23:23:53.947Z,11.66
2022-12-23T23:26:21.136Z,11.72
2022-12-23T23:28:48.050Z,11.67
2022-12-23T23:31:41.452Z,11.77
2022-12-23T23:34:01.375Z,11.65
2022-12-23T23:36:28.082Z,11.88
2022-12-23T23:38:54.836Z,11.75
2022-12-23T23:41:23.640Z,11.83
2022-12-23T23:43:51.335Z,11.65
2022-12-23T23:46:18.346Z,11.54
2022-12-23T23:48:45.248Z,11.65
2022-12-23T23:51:12.821Z,11.55
2022-12-23T23:53:40.225Z,11.57
2022-12-23T23:56:08.537Z,11.56
2022-12-23T23:58:36.484Z,11.59
